createdAt,value
2017-11-21T00:01:54.198Z,10.10
2017-11-21T00:04:21.680Z,10.10
2017-11-21T00:06:49.951Z,10.00
2017-11-21T00:09:17.413Z,10.00
2017-11-21T00:11:45.665Z,10.00
2017-11-21T00:14:13.130Z,10.00
2017-11-21T00:16:40.638Z,10.00
2017-11-21T00:19:08.100Z,10.00
2017-11-21T00:21:35.632Z,10.00
2017-11-21T00:24:03.155Z,10.00
2017-11-21T00:26:30.720Z,10.10
2017-11-21T00:28:58.257Z,10.10
2017-11-21T00:31:25.722Z,10.10
2017-11-21T00:33:53.193Z,10.10
2017-11-21T00:36:20.651Z,10.10
2017-11-21T00:38:48.133Z,10.10
2017-11-21T00:41:15.601Z,10.10
2017-11-21T00:43:43.128Z,10.10
2017-11-21T00:46:10.698Z,10.10
2017-11-21T00:48:38.945Z,10.10
2017-11-21T00:51:06.518Z,10.10
2017-11-21T00:53:34.020Z,10.10
2017-11-21T00:56:01.508Z,10.10
2017-11-21T00:58:28.960Z,10.10
2017-11-21T01:00:56.444Z,10.10
2017-11-21T01:03:24.689Z,10.10
2017-11-21T01:05:52.188Z,10.10
2017-11-21T01:08:20.419Z,10.10
2017-11-21T01:10:47.895Z,10.10
2017-11-21T01:13:16.868Z,10.10
2017-11-21T01:15:44.331Z,10.10
2017-11-21T01:18:11.810Z,10.10
2017-11-21T01:20:39.281Z,10.10
2017-11-21T01:23:07.512Z,10.20
2017-11-21T01:25:35.024Z,10.20
2017-11-21T01:28:02.520Z,10.20
2017-11-21T01:30:30.017Z,10.20
2017-11-21T01:32:58.332Z,10.20
2017-11-21T01:35:25.808Z,10.20
2017-11-21T01:37:53.272Z,10.30
2017-11-21T01:40:20.752Z,10.30
2017-11-21T01:42:48.229Z,10.30
2017-11-21T01:45:15.732Z,10.30
2017-11-21T01:47:43.198Z,10.30
2017-11-21T01:50:10.680Z,10.30
2017-11-21T01:52:38.144Z,10.40
2017-11-21T01:55:05.625Z,10.40
2017-11-21T01:57:33.085Z,10.40
2017-11-21T02:00:00.659Z,10.40
2017-11-21T02:02:28.134Z,10.40
2017-11-21T02:04:55.604Z,10.40
2017-11-21T02:07:23.088Z,10.40
2017-11-21T02:09:50.554Z,10.40
2017-11-21T02:12:18.796Z,10.50
2017-11-21T02:14:46.255Z,10.40
2017-11-21T02:17:13.740Z,10.50
2017-11-21T02:19:41.964Z,10.50
2017-11-21T02:22:09.444Z,10.40
2017-11-21T02:24:37.064Z,10.50
2017-11-21T02:27:04.589Z,10.50
2017-11-21T02:29:32.836Z,10.50
2017-11-21T02:32:00.320Z,10.50
2017-11-21T02:34:28.545Z,10.50
2017-11-21T02:36:56.023Z,10.50
2017-11-21T02:39:23.501Z,10.50
2017-11-21T02:41:51.832Z,10.50
2017-11-21T02:44:19.284Z,10.50
2017-11-21T02:46:46.776Z,10.50
2017-11-21T02:49:14.244Z,10.60
2017-11-21T02:51:42.515Z,10.60
2017-11-21T02:54:10.005Z,10.50
2017-11-21T02:56:37.479Z,10.50
2017-11-21T02:59:05.001Z,10.50
2017-11-21T03:01:32.510Z,10.50
2017-11-21T03:03:59.999Z,10.50
2017-11-21T03:06:27.480Z,10.50
2017-11-21T03:08:55.724Z,10.60
2017-11-21T03:11:23.184Z,10.60
2017-11-21T03:13:50.796Z,10.60
2017-11-21T03:16:18.277Z,10.60
2017-11-21T03:18:45.740Z,10.60
2017-11-21T03:21:25.148Z,10.60
2017-11-21T03:24:04.717Z,10.60
2017-11-21T03:26:32.200Z,10.60
2017-11-21T03:29:00.432Z,10.50
2017-11-21T03:31:28.080Z,10.50
2017-11-21T03:33:55.556Z,10.50
2017-11-21T03:36:23.019Z,10.50
2017-11-21T03:38:50.499Z,10.50
2017-11-21T03:41:17.960Z,10.50
2017-11-21T03:43:45.447Z,10.50
2017-11-21T03:46:12.917Z,10.50
2017-11-21T03:48:40.478Z,10.50
2017-11-21T03:51:07.952Z,10.50
2017-11-21T03:53:35.410Z,10.60
2017-11-21T03:56:02.949Z,10.50
2017-11-21T03:58:30.407Z,10.50
2017-11-21T04:00:57.890Z,10.50
2017-11-21T04:03:25.368Z,10.50
2017-11-21T04:05:52.823Z,10.60
2017-11-21T04:08:20.284Z,10.60
2017-11-21T04:10:47.767Z,10.50
2017-11-21T04:13:15.248Z,10.50
2017-11-21T04:15:42.711Z,10.50
2017-11-21T04:18:10.187Z,10.60
2017-11-21T04:20:37.670Z,10.60
2017-11-21T04:23:05.904Z,10.50
2017-11-21T04:25:33.392Z,10.50
2017-11-21T04:28:00.888Z,10.60
2017-11-21T04:30:28.343Z,10.50
2017-11-21T04:32:55.863Z,10.50
2017-11-21T04:35:23.332Z,10.50
2017-11-21T04:37:51.560Z,10.50
2017-11-21T04:40:19.040Z,10.50
2017-11-21T04:42:46.611Z,10.50
2017-11-21T04:45:14.092Z,10.60
2017-11-21T04:47:42.344Z,10.60
2017-11-21T04:50:09.929Z,10.60
2017-11-21T04:52:38.160Z,10.60
2017-11-21T04:55:05.645Z,10.50
2017-11-21T04:57:33.896Z,10.60
2017-11-21T05:00:01.377Z,10.50
2017-11-21T05:02:29.614Z,10.60
2017-11-21T05:04:57.095Z,10.50
2017-11-21T05:07:24.560Z,10.60
2017-11-21T05:09:52.076Z,10.50
2017-11-21T05:12:19.564Z,10.60
2017-11-21T05:14:47.024Z,10.60
2017-11-21T05:17:14.581Z,10.60
2017-11-21T05:19:42.084Z,10.60
2017-11-21T05:22:09.561Z,10.60
2017-11-21T05:24:37.061Z,10.60
2017-11-21T05:27:05.299Z,10.60
2017-11-21T05:29:32.782Z,10.60
2017-11-21T05:32:00.265Z,10.60
2017-11-21T05:34:28.508Z,10.60
2017-11-21T05:36:55.973Z,10.60
2017-11-21T05:39:23.462Z,10.60
2017-11-21T05:41:50.942Z,10.60
2017-11-21T05:44:18.420Z,10.60
2017-11-21T05:46:45.893Z,10.60
2017-11-21T05:49:13.379Z,10.60
2017-11-21T05:51:41.627Z,10.50
2017-11-21T05:54:10.608Z,10.50
2017-11-21T05:56:38.083Z,10.50
2017-11-21T05:59:05.553Z,10.50
2017-11-21T06:01:33.783Z,10.50
2017-11-21T06:04:01.364Z,10.50
2017-11-21T06:06:28.841Z,10.60
2017-11-21T06:08:57.103Z,10.60
2017-11-21T06:11:24.567Z,10.60
2017-11-21T06:13:52.815Z,10.50
2017-11-21T06:16:20.283Z,10.60
2017-11-21T06:18:48.195Z,10.50
2017-11-21T06:21:15.652Z,10.60
2017-11-21T06:23:43.167Z,10.60
2017-11-21T06:26:10.648Z,10.50
2017-11-21T06:28:38.881Z,10.50
2017-11-21T06:31:06.359Z,10.50
2017-11-21T06:33:33.820Z,10.50
2017-11-21T06:36:02.068Z,10.60
2017-11-21T06:38:29.536Z,10.50
2017-11-21T06:40:57.056Z,10.50
2017-11-21T06:43:24.527Z,10.50
2017-11-21T06:45:51.989Z,10.50
2017-11-21T06:48:19.473Z,10.50
2017-11-21T06:50:46.936Z,10.50
2017-11-21T06:53:15.259Z,10.50
2017-11-21T06:55:42.725Z,10.50
2017-11-21T06:58:10.203Z,10.50
2017-11-21T07:00:37.664Z,10.50
2017-11-21T07:03:05.895Z,10.50
2017-11-21T07:05:33.368Z,10.50
2017-11-21T07:08:00.836Z,10.50
2017-11-21T07:10:28.321Z,10.50
2017-11-21T07:12:55.879Z,10.50
2017-11-21T07:15:24.116Z,10.50
2017-11-21T07:17:51.593Z,10.50
2017-11-21T07:20:19.061Z,10.50
2017-11-21T07:22:46.540Z,10.50
2017-11-21T07:25:14.780Z,10.50
2017-11-21T07:27:42.240Z,10.50
2017-11-21T07:30:11.315Z,10.50
2017-11-21T07:32:38.793Z,10.50
2017-11-21T07:35:06.258Z,10.50
2017-11-21T07:37:33.740Z,10.50
2017-11-21T07:40:01.969Z,10.50
2017-11-21T07:42:29.457Z,10.50
2017-11-21T07:44:56.911Z,10.50
2017-11-21T07:47:25.138Z,10.50
2017-11-21T07:49:52.629Z,10.50
2017-11-21T07:52:20.092Z,10.60
2017-11-21T07:54:47.607Z,10.60
2017-11-21T07:57:15.071Z,10.50
2017-11-21T07:59:42.552Z,10.60
2017-11-21T08:02:10.026Z,10.60
2017-11-21T08:04:37.575Z,10.60
2017-11-21T08:07:05.052Z,10.60
2017-11-21T08:09:33.292Z,10.60
2017-11-21T08:12:00.770Z,10.60
2017-11-21T08:14:29.024Z,10.70
2017-11-21T08:16:56.496Z,10.70
2017-11-21T08:19:23.956Z,10.70
2017-11-21T08:21:52.948Z,10.70
2017-11-21T08:24:20.410Z,10.70
2017-11-21T08:26:48.671Z,10.70
2017-11-21T08:29:16.138Z,10.60
2017-11-21T08:31:43.597Z,10.70
2017-11-21T08:34:11.079Z,10.70
2017-11-21T08:36:38.543Z,10.70
2017-11-21T08:39:06.023Z,10.70
2017-11-21T08:41:33.497Z,10.70
2017-11-21T08:44:00.983Z,10.70
2017-11-21T08:46:29.212Z,10.70
2017-11-21T08:48:56.683Z,10.70
2017-11-21T08:51:24.161Z,10.70
2017-11-21T08:53:51.644Z,10.70
2017-11-21T08:56:19.895Z,10.70
2017-11-21T08:58:47.348Z,10.70
2017-11-21T09:01:14.832Z,10.70
2017-11-21T09:03:43.076Z,10.80
2017-11-21T09:06:10.640Z,10.80
2017-11-21T09:08:38.121Z,10.80
2017-11-21T09:11:06.371Z,10.70
2017-11-21T09:13:33.832Z,10.80
2017-11-21T09:16:01.325Z,10.70
2017-11-21T09:18:28.792Z,10.70
2017-11-21T09:20:56.286Z,10.70
2017-11-21T09:23:23.764Z,10.70
2017-11-21T09:25:51.991Z,10.70
2017-11-21T09:28:19.448Z,10.70
2017-11-21T09:30:46.922Z,10.70
2017-11-21T09:33:15.257Z,10.70
2017-11-21T09:35:42.739Z,10.70
2017-11-21T09:38:10.204Z,10.70
2017-11-21T09:40:37.679Z,10.70
2017-11-21T09:43:05.169Z,10.70
2017-11-21T09:45:33.396Z,10.70
2017-11-21T09:48:00.882Z,10.70
2017-11-21T09:50:28.347Z,10.70
2017-11-21T09:52:56.595Z,10.70
2017-11-21T09:55:24.075Z,10.70
2017-11-21T09:57:52.321Z,10.70
2017-11-21T10:00:19.777Z,10.70
2017-11-21T10:02:47.267Z,10.70
2017-11-21T10:05:15.492Z,10.70
2017-11-21T10:07:42.971Z,10.70
2017-11-21T10:10:10.432Z,10.70
2017-11-21T10:12:37.921Z,10.80
2017-11-21T10:15:06.148Z,10.70
2017-11-21T10:17:33.635Z,10.70
2017-11-21T10:20:01.890Z,10.70
2017-11-21T10:22:29.362Z,10.70
2017-11-21T10:24:56.841Z,10.70
2017-11-21T10:27:25.087Z,10.80
2017-11-21T10:29:52.567Z,10.80
2017-11-21T10:32:20.791Z,10.80
2017-11-21T10:34:48.269Z,10.80
2017-11-21T10:37:15.733Z,10.80
2017-11-21T10:39:43.985Z,10.90
2017-11-21T10:42:11.447Z,10.80
2017-11-21T10:44:38.946Z,10.90
2017-11-21T10:47:07.168Z,10.90
2017-11-21T10:49:34.640Z,10.80
2017-11-21T10:52:02.121Z,10.80
2017-11-21T10:54:29.588Z,10.80
2017-11-21T10:56:57.823Z,10.80
2017-11-21T10:59:25.287Z,10.80
2017-11-21T11:01:54.272Z,10.80
2017-11-21T11:04:21.739Z,10.80
2017-11-21T11:06:49.208Z,10.80
2017-11-21T11:09:16.760Z,10.80
2017-11-21T11:11:44.215Z,10.80
2017-11-21T11:14:11.679Z,10.80
2017-11-21T11:16:39.926Z,10.70
2017-11-21T11:19:07.399Z,10.70
2017-11-21T11:21:35.640Z,10.60
2017-11-21T11:24:03.138Z,10.60
2017-11-21T11:26:30.591Z,10.60
2017-11-21T11:28:58.074Z,10.60
2017-11-21T11:31:26.320Z,10.60
2017-11-21T11:33:53.776Z,10.50
2017-11-21T11:36:21.252Z,10.50
2017-11-21T11:38:49.477Z,10.50
2017-11-21T11:41:16.951Z,10.50
2017-11-21T11:43:44.439Z,10.50
2017-11-21T11:46:12.681Z,10.50
2017-11-21T11:48:40.140Z,10.50
2017-11-21T11:51:07.623Z,10.50
2017-11-21T11:53:35.853Z,10.40
2017-11-21T11:56:03.321Z,10.50
2017-11-21T11:58:30.798Z,10.40
2017-11-21T12:00:58.280Z,10.40
2017-11-21T12:03:26.521Z,10.40
2017-11-21T12:05:53.977Z,10.40
2017-11-21T12:08:21.464Z,10.40
2017-11-21T12:10:49.346Z,10.40
2017-11-21T12:13:16.825Z,10.40
2017-11-21T12:15:44.308Z,10.40
2017-11-21T12:18:11.781Z,10.40
2017-11-21T12:20:39.260Z,10.30
2017-11-21T12:23:07.495Z,10.30
2017-11-21T12:25:34.971Z,10.30
2017-11-21T12:28:02.452Z,10.30
2017-11-21T12:30:29.934Z,10.30
2017-11-21T12:32:57.420Z,10.30
2017-11-21T12:35:24.883Z,10.30
2017-11-21T12:37:52.371Z,10.30
2017-11-21T12:40:20.601Z,10.20
2017-11-21T12:42:48.085Z,10.20
2017-11-21T12:45:17.065Z,10.20
2017-11-21T12:47:44.532Z,10.20
2017-11-21T12:50:12.025Z,10.20
2017-11-21T12:52:39.481Z,10.20
2017-11-21T12:55:06.940Z,10.20
2017-11-21T12:57:34.424Z,10.20
2017-11-21T13:00:01.900Z,10.10
2017-11-21T13:02:29.472Z,10.10
2017-11-21T13:04:56.935Z,10.10
2017-11-21T13:07:25.189Z,10.10
2017-11-21T13:09:52.650Z,10.10
2017-11-21T13:12:20.897Z,10.10
2017-11-21T13:14:48.447Z,10.10
2017-11-21T13:17:15.929Z,10.10
2017-11-21T13:19:43.402Z,10.10
2017-11-21T13:22:10.875Z,10.20
2017-11-21T13:24:39.109Z,10.20
2017-11-21T13:27:06.575Z,10.20
2017-11-21T13:29:34.056Z,10.30
2017-11-21T13:32:01.515Z,10.30
2017-11-21T13:34:29.845Z,10.30
2017-11-21T13:36:57.313Z,10.20
2017-11-21T13:39:24.797Z,10.30
2017-11-21T13:41:52.261Z,10.30
2017-11-21T13:44:19.740Z,10.30
2017-11-21T13:46:47.233Z,10.30
2017-11-21T13:49:14.702Z,10.30
2017-11-21T13:51:42.186Z,10.30
2017-11-21T13:54:09.666Z,10.20
2017-11-21T13:56:37.912Z,10.20
2017-11-21T13:59:05.382Z,10.20
2017-11-21T14:01:32.850Z,10.20
2017-11-21T14:04:01.093Z,10.20
2017-11-21T14:06:28.565Z,10.20
2017-11-21T14:08:56.056Z,10.20
2017-11-21T14:11:23.524Z,10.20
2017-11-21T14:13:51.016Z,10.20
2017-11-21T14:16:18.472Z,10.20
2017-11-21T14:18:45.953Z,10.20
2017-11-21T14:21:14.200Z,10.20
2017-11-21T14:23:41.663Z,10.10
2017-11-21T14:26:09.917Z,10.10
2017-11-21T14:28:37.391Z,10.10
2017-11-21T14:31:04.866Z,10.10
2017-11-21T14:33:32.347Z,10.10
2017-11-21T14:36:00.578Z,10.10
2017-11-21T14:38:28.050Z,10.10
2017-11-21T14:40:55.515Z,10.20
2017-11-21T14:43:23.755Z,10.10
2017-11-21T14:45:51.238Z,10.10
2017-11-21T14:48:18.698Z,10.10
2017-11-21T14:50:46.180Z,10.10
2017-11-21T14:53:14.137Z,10.10
2017-11-21T14:55:42.383Z,10.20
2017-11-21T14:58:09.872Z,10.20
2017-11-21T15:00:38.116Z,10.20
2017-11-21T15:03:07.091Z,10.20
2017-11-21T15:05:34.632Z,10.10
2017-11-21T15:08:02.125Z,10.20
2017-11-21T15:10:30.378Z,10.10
2017-11-21T15:12:57.840Z,10.20
2017-11-21T15:15:25.332Z,10.20
2017-11-21T15:17:52.838Z,10.10
2017-11-21T15:20:20.299Z,10.10
2017-11-21T15:22:47.775Z,10.20
2017-11-21T15:25:15.244Z,10.10
2017-11-21T15:27:42.737Z,10.10
2017-11-21T15:30:10.221Z,10.10
2017-11-21T15:32:37.713Z,10.10
2017-11-21T15:35:05.183Z,10.00
2017-11-21T15:37:32.668Z,10.00
2017-11-21T15:40:00.154Z,10.00
2017-11-21T15:42:27.625Z,10.00
2017-11-21T15:44:55.108Z,10.00
2017-11-21T15:47:22.571Z,10.00
2017-11-21T15:49:50.068Z,10.00
2017-11-21T15:52:17.532Z,10.00
2017-11-21T15:54:44.997Z,10.00
2017-11-21T15:57:12.472Z,10.00
2017-11-21T15:59:39.937Z,9.90
2017-11-21T16:02:08.164Z,9.90
2017-11-21T16:04:35.651Z,9.90
2017-11-21T16:07:03.147Z,10.00
2017-11-21T16:09:31.384Z,9.90
2017-11-21T16:11:58.859Z,9.90
2017-11-21T16:14:27.827Z,9.90
2017-11-21T16:16:55.320Z,9.90
2017-11-21T16:19:23.583Z,9.80
2017-11-21T16:21:51.041Z,9.90
2017-11-21T16:24:18.528Z,9.90
2017-11-21T16:26:46.752Z,9.90
2017-11-21T16:29:14.217Z,9.90
2017-11-21T16:31:41.740Z,9.90
2017-11-21T16:34:09.223Z,9.90
2017-11-21T16:36:36.711Z,9.90
2017-11-21T16:39:05.193Z,9.90
2017-11-21T16:41:32.666Z,9.90
2017-11-21T16:44:00.147Z,9.90
2017-11-21T16:46:27.619Z,9.90
2017-11-21T16:48:55.093Z,9.90
2017-11-21T16:51:22.571Z,9.90
2017-11-21T16:53:50.796Z,9.90
2017-11-21T16:56:18.275Z,9.90
2017-11-21T16:58:45.756Z,9.90
2017-11-21T17:01:13.235Z,9.90
2017-11-21T17:03:40.695Z,9.90
2017-11-21T17:06:08.177Z,9.90
2017-11-21T17:08:35.650Z,9.90
2017-11-21T17:11:03.143Z,9.90
2017-11-21T17:13:30.619Z,9.80
2017-11-21T17:15:58.081Z,9.90
2017-11-21T17:18:25.560Z,9.90
2017-11-21T17:20:53.032Z,9.90
2017-11-21T17:23:20.786Z,9.90
2017-11-21T17:25:48.291Z,9.90
2017-11-21T17:28:15.764Z,9.90
2017-11-21T17:30:43.239Z,9.90
2017-11-21T17:33:10.701Z,9.90
2017-11-21T17:35:38.188Z,9.90
2017-11-21T17:38:05.648Z,9.90
2017-11-21T17:40:33.109Z,9.90
2017-11-21T17:43:00.594Z,9.90
2017-11-21T17:45:28.835Z,9.90
2017-11-21T17:47:57.092Z,9.90
2017-11-21T17:50:24.573Z,9.80
2017-11-21T17:52:52.088Z,9.90
2017-11-21T17:55:19.562Z,9.90
2017-11-21T17:57:47.048Z,9.90
2017-11-21T18:00:14.506Z,9.90
2017-11-21T18:02:42.121Z,9.90
2017-11-21T18:05:09.580Z,9.80
2017-11-21T18:07:37.041Z,9.90
2017-11-21T18:10:04.527Z,9.90
2017-11-21T18:12:31.990Z,9.90
2017-11-21T18:15:00.257Z,9.90
2017-11-21T18:17:27.726Z,9.80
2017-11-21T18:19:55.979Z,9.90
2017-11-21T18:22:23.440Z,9.90
2017-11-21T18:24:50.902Z,9.90
2017-11-21T18:27:18.375Z,9.90
2017-11-21T18:29:47.287Z,9.90
2017-11-21T18:32:15.588Z,9.90
2017-11-21T18:34:43.081Z,9.90
2017-11-21T18:37:10.540Z,9.80
2017-11-21T18:39:38.059Z,9.80
2017-11-21T18:42:05.537Z,9.80
2017-11-21T18:44:33.052Z,9.80
2017-11-21T18:47:00.516Z,9.80
2017-11-21T18:49:28.000Z,9.80
2017-11-21T18:51:55.538Z,9.80
2017-11-21T18:54:23.011Z,9.80
2017-11-21T18:56:54.350Z,9.80
2017-11-21T18:59:23.765Z,9.80
2017-11-21T19:01:51.800Z,9.80
2017-11-21T19:04:20.032Z,9.80
2017-11-21T19:06:47.547Z,9.70
2017-11-21T19:09:15.060Z,9.70
2017-11-21T19:11:42.536Z,9.80
2017-11-21T19:14:10.783Z,9.70
2017-11-21T19:16:38.277Z,9.70
2017-11-21T19:19:06.529Z,9.70
2017-11-21T19:21:35.514Z,9.70
2017-11-21T19:24:04.517Z,9.70
2017-11-21T19:26:32.015Z,9.80
2017-11-21T19:29:01.967Z,9.80
2017-11-21T19:31:30.268Z,9.70
2017-11-21T19:33:58.587Z,9.70
2017-11-21T19:36:26.029Z,9.70
2017-11-21T19:38:53.503Z,9.80
2017-11-21T19:41:21.016Z,9.70
2017-11-21T19:43:49.260Z,9.70
2017-11-21T19:46:16.732Z,9.70
2017-11-21T19:48:44.216Z,9.70
2017-11-21T19:51:12.480Z,9.70
2017-11-21T19:53:40.720Z,9.70
2017-11-21T19:56:08.209Z,9.70
2017-11-21T19:58:36.433Z,9.70
2017-11-21T20:01:03.920Z,9.70
2017-11-21T20:03:31.370Z,9.70
2017-11-21T20:05:58.859Z,9.70
2017-11-21T20:08:27.324Z,9.70
2017-11-21T20:10:54.790Z,9.70
2017-11-21T20:13:23.049Z,9.70
2017-11-21T20:15:50.511Z,9.70
2017-11-21T20:18:17.992Z,9.70
2017-11-21T20:20:46.291Z,9.60
2017-11-21T20:23:13.802Z,9.60
2017-11-21T20:25:42.800Z,9.60
2017-11-21T20:28:10.273Z,9.60
2017-11-21T20:30:38.730Z,9.70
2017-11-21T20:33:06.252Z,9.60
2017-11-21T20:35:35.481Z,9.60
2017-11-21T20:38:03.356Z,9.60
2017-11-21T20:40:30.861Z,9.60
2017-11-21T20:42:58.320Z,9.60
2017-11-21T20:45:25.841Z,9.60
2017-11-21T20:47:54.073Z,9.60
2017-11-21T20:50:21.532Z,9.60
2017-11-21T20:52:49.123Z,9.60
2017-11-21T20:55:17.376Z,9.60
2017-11-21T20:57:44.916Z,9.60
2017-11-21T21:00:13.331Z,9.60
2017-11-21T21:02:40.812Z,9.60
2017-11-21T21:05:08.279Z,9.60
2017-11-21T21:07:35.758Z,9.60
2017-11-21T21:10:03.240Z,9.60
2017-11-21T21:12:30.709Z,9.70
2017-11-21T21:14:58.196Z,9.70
2017-11-21T21:17:25.679Z,9.70
2017-11-21T21:19:53.148Z,9.70
2017-11-21T21:22:20.635Z,9.70
2017-11-21T21:24:48.119Z,9.70
2017-11-21T21:27:27.599Z,9.80
2017-11-21T21:29:55.070Z,9.80
2017-11-21T21:32:22.543Z,9.80
2017-11-21T21:34:50.023Z,9.70
2017-11-21T21:37:18.248Z,9.80
2017-11-21T21:39:45.719Z,9.70
2017-11-21T21:42:13.190Z,9.70
2017-11-21T21:44:40.692Z,9.80
2017-11-21T21:47:08.159Z,9.80
2017-11-21T21:49:35.619Z,9.80
2017-11-21T21:52:03.263Z,9.70
2017-11-21T21:54:30.728Z,9.80
2017-11-21T21:56:58.199Z,9.80
2017-11-21T21:59:25.665Z,9.80
2017-11-21T22:01:53.164Z,9.80
2017-11-21T22:04:21.390Z,9.80
2017-11-21T22:06:48.852Z,9.70
2017-11-21T22:09:16.340Z,9.80
2017-11-21T22:11:44.561Z,9.80
2017-11-21T22:14:12.032Z,9.80
2017-11-21T22:16:39.664Z,9.80
2017-11-21T22:19:07.150Z,9.80
2017-11-21T22:21:34.607Z,9.80
2017-11-21T22:24:02.104Z,9.80
2017-11-21T22:26:29.575Z,9.80
2017-11-21T22:28:57.046Z,9.80
2017-11-21T22:31:24.507Z,9.80
2017-11-21T22:33:52.022Z,9.70
2017-11-21T22:36:19.492Z,9.80
2017-11-21T22:38:47.736Z,9.80
2017-11-21T22:41:16.798Z,9.80
2017-11-21T22:43:44.274Z,9.70
2017-11-21T22:46:11.748Z,9.80
2017-11-21T22:48:39.252Z,9.80
2017-11-21T22:51:06.723Z,9.80
2017-11-21T22:53:34.189Z,9.80
2017-11-21T22:56:01.647Z,9.80
2017-11-21T22:58:29.127Z,9.80
2017-11-21T23:00:56.679Z,9.80
2017-11-21T23:03:24.140Z,9.80
2017-11-21T23:05:51.653Z,9.80
2017-11-21T23:08:19.103Z,9.80
2017-11-21T23:10:46.589Z,9.90
2017-11-21T23:13:14.050Z,9.90
2017-11-21T23:15:41.512Z,9.90
2017-11-21T23:18:08.993Z,9.90
2017-11-21T23:20:36.457Z,9.90
2017-11-21T23:23:04.704Z,9.90
2017-11-21T23:25:32.171Z,9.90
2017-11-21T23:27:59.640Z,9.90
2017-11-21T23:30:27.110Z,10.00
2017-11-21T23:32:55.353Z,10.00
2017-11-21T23:35:22.810Z,10.00
2017-11-21T23:37:50.301Z,10.00
2017-11-21T23:40:18.540Z,10.00
2017-11-21T23:42:46.004Z,10.00
2017-11-21T23:45:14.993Z,10.00
2017-11-21T23:47:43.265Z,10.00
2017-11-21T23:50:10.728Z,10.00
2017-11-21T23:52:38.985Z,10.00
2017-11-21T23:55:06.448Z,10.00
2017-11-21T23:57:34.265Z,10.00
